Time;durP1;ratioP1;P1;durP2;ratioP2;P2;SDS_P1;SDS_P2;PMS_P1;PMS_P2;Temp;Humidity;BMP_temperature;BMP_pressure;BME280_temperature;BME280_humidity;BME280_pressure;Samples;Min_cycle;Max_cycle;Signal;HPM_P1;HPM_P2
2022/10/14 00:00:17;;;;;;;33.42;21.70;;;11.50;99.90;;;;;;6238467;23;20016;-89
2022/10/14 00:02:42;;;;;;;35.22;22.58;;;11.40;99.90;;;;;;6213350;23;20008;-89
2022/10/14 00:05:08;;;;;;;41.15;24.50;;;11.50;99.90;;;;;;6238358;23;20077;-89
2022/10/14 00:07:35;;;;;;;38.65;24.27;;;11.40;99.90;;;;;;6240205;22;20065;-88
2022/10/14 00:10:01;;;;;;;37.95;24.33;;;11.40;99.90;;;;;;6240165;22;20083;-90
2022/10/14 00:12:28;;;;;;;46.28;24.75;;;11.40;99.90;;;;;;6241279;23;20418;-89
2022/10/14 00:14:55;;;;;;;61.53;31.05;;;11.40;99.90;;;;;;6240255;22;20012;-89
2022/10/14 00:17:20;;;;;;;181.95;37.47;;;11.50;99.90;;;;;;6212959;23;20318;-89
2022/10/14 00:19:46;;;;;;;166.77;33.17;;;11.50;99.90;;;;;;6240388;22;20062;-89
2022/10/14 00:22:12;;;;;;;196.63;35.10;;;11.60;99.90;;;;;;6239125;22;20009;-90
2022/10/14 00:24:38;;;;;;;194.80;33.40;;;11.60;99.90;;;;;;6238355;23;20024;-89
2022/10/14 00:27:04;;;;;;;247.38;39.03;;;11.60;99.90;;;;;;6237490;23;20119;-89
2022/10/14 00:29:30;;;;;;;93.80;30.48;;;11.60;99.90;;;;;;6238554;23;20020;-89
2022/10/14 00:31:55;;;;;;;376.70;40.95;;;11.60;99.90;;;;;;6237955;23;20019;-89
2022/10/14 00:34:21;;;;;;;448.20;45.63;;;11.60;99.90;;;;;;6239919;23;20031;-90
2022/10/14 00:36:46;;;;;;;249.68;32.33;;;11.60;99.90;;;;;;6238139;23;20020;-90
2022/10/14 00:39:12;;;;;;;388.90;37.28;;;11.60;99.90;;;;;;6212985;23;20027;-89
2022/10/14 00:41:38;;;;;;;226.00;33.60;;;11.60;99.90;;;;;;6240052;23;20446;-89
2022/10/14 00:44:11;;;;;;;233.65;30.95;;;11.60;99.90;;;;;;6238069;23;20047;-88
2022/10/14 00:46:40;;;;;;;105.90;21.95;;;11.60;99.90;;;;;;6238140;23;20066;-89
2022/10/14 00:49:13;;;;;;;114.68;21.20;;;11.60;99.90;;;;;;6237536;23;20012;-89
2022/10/14 00:51:41;;;;;;;335.92;30.23;;;11.50;99.90;;;;;;6237430;23;20022;-89
2022/10/14 00:54:08;;;;;;;249.77;26.27;;;11.50;99.90;;;;;;6238170;23;20023;-89
2022/10/14 00:56:35;;;;;;;296.05;27.10;;;11.50;99.90;;;;;;6239481;22;20024;-89
2022/10/14 00:59:02;;;;;;;129.88;19.70;;;11.50;99.90;;;;;;6239333;22;20427;-89
2022/10/14 01:01:28;;;;;;;243.05;29.95;;;11.40;99.90;;;;;;6239385;22;20090;-89
2022/10/14 01:03:54;;;;;;;139.98;24.17;;;11.40;99.90;;;;;;6238041;23;20105;-90
2022/10/14 01:06:47;;;;;;;145.70;20.08;;;11.40;99.90;;;;;;6239286;23;20008;-89
2022/10/14 01:09:34;;;;;;;336.55;36.65;;;11.40;99.90;;;;;;6237778;23;20020;-89
2022/10/14 01:12:03;;;;;;;149.65;22.67;;;11.40;99.90;;;;;;6239583;23;20441;-89
2022/10/14 01:14:58;;;;;;;145.55;23.88;;;11.40;99.90;;;;;;6238105;23;20244;-89
2022/10/14 01:17:37;;;;;;;100.57;21.85;;;11.30;99.90;;;;;;6238165;23;20020;-89
2022/10/14 01:20:15;;;;;;;192.70;26.80;;;11.40;99.90;;;;;;6211774;23;20451;-89
2022/10/14 01:22:54;;;;;;;114.53;20.27;;;11.30;99.90;;;;;;6237534;23;20020;-89
2022/10/14 01:25:49;;;;;;;301.10;28.42;;;11.40;99.90;;;;;;6239919;23;20475;-90
2022/10/14 01:28:25;;;;;;;;;;;11.30;99.90;;;;;;6238281;23;20025;-89
2022/10/14 01:31:02;;;;;;;85.50;17.05;;;11.40;99.90;;;;;;6212456;23;19942;-89
2022/10/14 01:33:34;;;;;;;111.13;18.38;;;11.30;99.90;;;;;;6237367;23;20016;-89
2022/10/14 01:36:19;;;;;;;64.70;16.45;;;11.30;99.90;;;;;;6238469;23;20345;-89
2022/10/14 01:38:50;;;;;;;212.90;22.00;;;11.30;99.90;;;;;;6238667;23;20087;-88
2022/10/14 01:41:24;;;;;;;97.85;16.95;;;11.30;99.90;;;;;;6239022;22;20079;-89
2022/10/14 01:43:51;;;;;;;72.97;16.50;;;11.20;99.90;;;;;;6237019;23;20101;-90
2022/10/14 01:46:20;;;;;;;54.35;17.58;;;11.30;99.90;;;;;;6237487;23;20440;-89
2022/10/14 01:48:51;;;;;;;111.38;18.65;;;11.20;99.90;;;;;;6239450;22;20447;-90
2022/10/14 01:51:22;;;;;;;135.63;18.98;;;11.20;99.90;;;;;;6237375;23;20019;-90
2022/10/14 01:54:03;;;;;;;156.35;17.45;;;11.20;99.90;;;;;;6238801;23;20759;-89
2022/10/14 01:56:31;;;;;;;164.60;19.08;;;11.20;99.90;;;;;;6238206;23;20074;-88
2022/10/14 01:58:59;;;;;;;167.13;18.92;;;11.20;99.90;;;;;;6240051;22;20012;-90
2022/10/14 02:01:26;;;;;;;95.22;16.50;;;11.10;99.90;;;;;;6238031;23;20019;-90
2022/10/14 02:03:51;;;;;;;93.93;16.40;;;11.10;99.90;;;;;;6239425;22;20012;-89
2022/10/14 02:06:34;;;;;;;282.88;23.13;;;11.10;99.90;;;;;;6239756;23;20434;-90
2022/10/14 02:09:11;;;;;;;76.75;16.40;;;11.10;99.90;;;;;;6241646;22;20023;-90
2022/10/14 02:11:47;;;;;;;161.95;18.08;;;11.10;99.90;;;;;;6240431;23;20012;-90
2022/10/14 02:14:37;;;;;;;275.65;20.00;;;11.10;99.90;;;;;;6239967;23;20019;-89
2022/10/14 02:17:10;;;;;;;180.32;17.77;;;11.10;99.90;;;;;;6240748;22;20016;-89
2022/10/14 02:19:49;;;;;;;26.23;12.70;;;11.00;99.90;;;;;;6242038;22;20017;-90
2022/10/14 02:22:35;;;;;;;44.53;13.27;;;11.00;99.90;;;;;;6240410;23;20016;-90
2022/10/14 02:25:12;;;;;;;243.75;20.15;;;11.00;99.90;;;;;;6241641;22;20019;-90
2022/10/14 02:27:41;;;;;;;145.00;15.35;;;11.00;99.90;;;;;;6240897;22;20472;-90
2022/10/14 02:30:08;;;;;;;203.38;18.15;;;11.00;99.90;;;;;;6239290;23;20406;-90
2022/10/14 02:32:35;;;;;;;106.63;12.32;;;11.00;99.90;;;;;;6213938;23;20023;-89
2022/10/14 02:35:02;;;;;;;196.25;17.13;;;11.00;99.90;;;;;;6239683;23;20027;-90
2022/10/14 02:37:29;;;;;;;78.32;12.27;;;10.90;99.90;;;;;;6241977;22;20066;-90
2022/10/14 02:40:01;;;;;;;135.07;13.07;;;10.90;99.90;;;;;;6241227;22;20031;-89
2022/10/14 02:42:27;;;;;;;120.00;12.80;;;10.90;99.90;;;;;;6240036;23;20020;-89
2022/10/14 02:44:58;;;;;;;192.50;16.58;;;10.90;99.90;;;;;;6239892;23;20008;-89
2022/10/14 02:47:25;;;;;;;116.82;12.80;;;10.90;99.90;;;;;;6239010;23;20016;-89
2022/10/14 02:49:51;;;;;;;21.48;10.30;;;10.80;99.90;;;;;;6239799;23;20016;-90
2022/10/14 02:52:17;;;;;;;248.57;17.23;;;10.80;99.90;;;;;;6238898;23;20054;-89
2022/10/14 02:54:43;;;;;;;259.95;21.30;;;10.80;99.90;;;;;;6241672;22;20062;-89
2022/10/14 02:57:08;;;;;;;123.10;15.20;;;10.90;99.90;;;;;;6239115;23;20027;-90
2022/10/14 02:59:34;;;;;;;100.63;12.93;;;10.90;99.90;;;;;;6239674;23;20023;-90
2022/10/14 03:02:00;;;;;;;156.52;16.30;;;10.80;99.90;;;;;;6238855;23;20016;-89
2022/10/14 03:04:25;;;;;;;186.85;16.73;;;10.90;99.90;;;;;;6240194;23;20008;-90
2022/10/14 03:06:52;;;;;;;76.78;12.73;;;10.80;99.90;;;;;;6239772;23;20376;-89
2022/10/14 03:09:18;;;;;;;56.50;12.48;;;11.00;99.90;;;;;;6214089;23;20020;-90
2022/10/14 03:11:44;;;;;;;143.40;15.60;;;10.80;99.90;;;;;;6239298;23;20024;-89
2022/10/14 03:14:09;;;;;;;72.50;12.55;;;10.80;99.90;;;;;;6239500;23;20387;-89
2022/10/14 03:16:35;;;;;;;202.05;19.15;;;10.90;99.90;;;;;;6239140;23;20016;-89
2022/10/14 03:19:01;;;;;;;46.47;11.25;;;10.80;99.90;;;;;;6241679;23;20012;-90
2022/10/14 03:21:27;;;;;;;58.42;13.38;;;10.80;99.90;;;;;;6239830;23;20023;-89
2022/10/14 03:23:52;;;;;;;41.70;13.18;;;10.80;99.90;;;;;;6240441;23;20368;-90
2022/10/14 03:26:18;;;;;;;40.25;12.98;;;10.90;99.90;;;;;;6241252;23;20059;-89
2022/10/14 03:28:43;;;;;;;68.88;13.65;;;10.90;99.90;;;;;;6241620;23;20020;-90
2022/10/14 03:31:09;;;;;;;131.43;16.45;;;10.90;99.90;;;;;;6239004;23;20048;-90
2022/10/14 03:33:35;;;;;;;41.88;12.98;;;10.90;99.90;;;;;;6240220;23;20012;-89
2022/10/14 03:36:00;;;;;;;157.60;16.08;;;10.90;99.90;;;;;;6240836;23;20020;-90
2022/10/14 03:38:26;;;;;;;81.18;14.20;;;10.90;99.90;;;;;;6240526;23;20019;-90
2022/10/14 03:40:52;;;;;;;172.25;16.77;;;10.90;99.90;;;;;;6239655;23;20088;-89
2022/10/14 03:43:18;;;;;;;89.40;14.45;;;10.90;99.90;;;;;;6240857;23;20386;-90
2022/10/14 03:45:44;;;;;;;105.60;14.88;;;10.90;99.90;;;;;;6238701;23;20023;-90
2022/10/14 03:48:10;;;;;;;90.05;14.07;;;10.90;99.90;;;;;;6239790;23;20020;-90
2022/10/14 03:50:36;;;;;;;206.85;16.13;;;10.90;99.90;;;;;;6241971;23;20012;-91
2022/10/14 03:53:01;;;;;;;92.00;12.85;;;11.00;99.90;;;;;;6239508;23;20516;-89
2022/10/14 03:55:27;;;;;;;117.47;13.68;;;10.90;99.90;;;;;;6241450;23;20091;-90
2022/10/14 03:57:52;;;;;;;77.95;12.00;;;10.90;99.90;;;;;;6239889;22;20016;-89
2022/10/14 04:00:18;;;;;;;187.27;14.15;;;10.90;99.90;;;;;;6213623;23;20016;-91
2022/10/14 04:02:44;;;;;;;117.70;13.93;;;10.90;99.90;;;;;;6239628;23;20020;-90
2022/10/14 04:05:09;;;;;;;124.65;13.90;;;10.90;99.90;;;;;;6239473;23;20008;-89
2022/10/14 04:07:35;;;;;;;59.30;11.45;;;10.90;99.90;;;;;;6239706;23;20016;-90
2022/10/14 04:10:02;;;;;;;94.18;12.88;;;10.80;99.90;;;;;;6213917;23;20073;-90
2022/10/14 04:12:27;;;;;;;128.70;15.75;;;10.90;99.90;;;;;;6240029;23;20496;-91
2022/10/14 04:14:55;;;;;;;117.80;13.77;;;10.80;99.90;;;;;;6238633;23;20012;-90
2022/10/14 04:17:24;;;;;;;86.85;12.30;;;10.80;99.90;;;;;;6241227;22;20080;-89
2022/10/14 04:19:51;;;;;;;63.53;12.45;;;10.70;99.90;;;;;;6214596;23;20013;-89
2022/10/14 04:22:17;;;;;;;54.45;10.35;;;10.70;99.90;;;;;;6240477;22;20019;-90
2022/10/14 04:24:43;;;;;;;65.93;12.10;;;10.50;99.90;;;;;;6239734;23;20277;-90
2022/10/14 04:27:09;;;;;;;42.95;10.63;;;10.70;99.90;;;;;;6239370;23;20419;-90
2022/10/14 04:29:35;;;;;;;69.35;12.15;;;10.70;99.90;;;;;;6239706;23;20044;-90
2022/10/14 04:32:00;;;;;;;123.53;13.10;;;10.70;99.90;;;;;;6239975;22;20019;-89
2022/10/14 04:34:26;;;;;;;32.50;8.57;;;10.70;99.90;;;;;;6239680;23;20008;-90
2022/10/14 04:36:52;;;;;;;124.82;12.93;;;10.70;99.90;;;;;;6241569;23;20046;-90
2022/10/14 04:39:18;;;;;;;36.22;10.30;;;10.60;99.90;;;;;;6240770;22;20012;-89
2022/10/14 04:41:44;;;;;;;60.20;10.95;;;10.60;99.90;;;;;;6239629;23;20390;-90
2022/10/14 04:44:10;;;;;;;29.35;10.35;;;10.60;99.90;;;;;;6240233;23;20043;-90
2022/10/14 04:46:35;;;;;;;67.05;11.43;;;10.70;99.90;;;;;;6238930;23;20430;-90
2022/10/14 04:49:01;;;;;;;87.53;11.90;;;10.70;99.90;;;;;;6240456;23;20023;-90
2022/10/14 04:51:26;;;;;;;98.90;13.90;;;10.60;99.90;;;;;;6239126;23;20008;-90
2022/10/14 04:53:52;;;;;;;37.33;10.40;;;10.70;99.90;;;;;;6239138;23;20023;-90
2022/10/14 04:56:18;;;;;;;91.20;12.02;;;10.70;99.90;;;;;;6241980;22;20091;-90
2022/10/14 04:58:43;;;;;;;95.82;12.02;;;10.70;99.90;;;;;;6239269;23;20028;-90
2022/10/14 05:01:09;;;;;;;112.80;13.55;;;10.70;99.90;;;;;;6240832;23;20012;-90
2022/10/14 05:03:35;;;;;;;84.60;12.98;;;10.70;99.90;;;;;;6241783;23;20365;-89
2022/10/14 05:06:00;;;;;;;56.70;12.23;;;10.70;99.90;;;;;;6216000;23;20023;-89
2022/10/14 05:08:26;;;;;;;88.13;12.73;;;10.70;99.90;;;;;;6243813;23;20513;-88
2022/10/14 05:10:52;;;;;;;106.60;14.13;;;10.70;99.90;;;;;;6242793;23;20009;-89
2022/10/14 05:13:18;;;;;;;49.28;11.15;;;10.70;99.90;;;;;;6217431;23;20024;-89
2022/10/14 05:15:43;;;;;;;60.60;11.30;;;10.70;99.90;;;;;;6242703;23;20012;-89
2022/10/14 05:18:10;;;;;;;90.63;13.35;;;10.70;99.90;;;;;;6242741;23;20040;-88
2022/10/14 05:20:37;;;;;;;67.60;12.02;;;10.80;99.90;;;;;;6244690;22;20073;-89
2022/10/14 05:23:03;;;;;;;51.03;12.90;;;10.70;99.90;;;;;;6241869;23;20024;-90
2022/10/14 05:25:29;;;;;;;70.28;13.98;;;10.70;99.90;;;;;;6215143;23;20760;-89
2022/10/14 05:27:55;;;;;;;49.40;13.77;;;10.70;99.90;;;;;;6241729;22;20065;-87
2022/10/14 05:30:21;;;;;;;26.55;11.18;;;10.90;99.90;;;;;;6241193;23;20016;-87
2022/10/14 05:32:46;;;;;;;29.73;12.95;;;10.70;99.90;;;;;;6213839;23;20079;-88
2022/10/14 05:35:12;;;;;;;42.85;13.98;;;10.70;99.90;;;;;;6240090;23;20008;-88
2022/10/14 05:37:38;;;;;;;34.25;13.52;;;10.80;99.90;;;;;;6215701;23;20039;-88
2022/10/14 05:40:04;;;;;;;31.13;14.38;;;10.80;99.90;;;;;;6214316;23;20048;-84
2022/10/14 05:42:30;;;;;;;30.92;13.65;;;10.80;99.90;;;;;;6241588;23;20012;-88
2022/10/14 05:44:56;;;;;;;49.35;17.67;;;10.80;99.90;;;;;;6215499;23;20062;-87
2022/10/14 05:47:21;;;;;;;51.28;16.23;;;10.80;99.90;;;;;;6243299;22;20012;-87
2022/10/14 05:49:47;;;;;;;38.65;18.23;;;10.90;99.90;;;;;;6214534;23;20012;-87
2022/10/14 05:52:13;;;;;;;47.53;21.95;;;10.90;99.90;;;;;;6239244;23;20008;-87
2022/10/14 05:54:38;;;;;;;54.00;16.55;;;10.80;99.90;;;;;;6239697;23;20047;-86
2022/10/14 05:57:04;;;;;;;46.42;18.20;;;10.90;99.90;;;;;;6240582;22;20044;-83
2022/10/14 05:59:30;;;;;;;76.22;20.90;;;10.90;99.90;;;;;;6214238;23;20095;-84
2022/10/14 06:01:56;;;;;;;41.42;16.52;;;10.90;99.90;;;;;;6238492;23;20012;-83
2022/10/14 06:04:22;;;;;;;61.25;17.83;;;10.90;99.90;;;;;;6239599;23;20020;-83
2022/10/14 06:06:47;;;;;;;51.03;17.55;;;10.90;99.90;;;;;;6239605;23;20012;-85
2022/10/14 06:09:13;;;;;;;40.88;15.68;;;10.90;99.90;;;;;;6240472;23;20303;-85
2022/10/14 06:11:39;;;;;;;44.60;20.70;;;10.80;99.90;;;;;;6241020;22;20023;-85
2022/10/14 06:14:05;;;;;;;56.22;18.33;;;11.80;99.90;;;;;;6240696;23;20009;-84
2022/10/14 06:16:31;;;;;;;63.42;19.48;;;10.90;99.90;;;;;;6239192;23;20074;-85
2022/10/14 06:18:57;;;;;;;50.65;18.35;;;10.90;99.90;;;;;;6241134;23;20012;-84
2022/10/14 06:21:22;;;;;;;69.18;20.27;;;10.90;99.90;;;;;;6238946;23;20011;-84
2022/10/14 06:23:48;;;;;;;61.55;18.20;;;10.90;99.90;;;;;;6236189;22;20314;-85
2022/10/14 06:26:14;;;;;;;60.20;16.10;;;11.00;99.90;;;;;;6240079;23;20012;-85
2022/10/14 06:28:39;;;;;;;38.95;15.93;;;10.90;99.90;;;;;;6240505;23;20117;-85
2022/10/14 06:31:06;;;;;;;46.65;17.75;;;11.00;99.90;;;;;;6239115;22;20023;-84
2022/10/14 06:33:31;;;;;;;78.20;18.42;;;11.00;99.90;;;;;;6236088;23;20020;-84
2022/10/14 06:35:57;;;;;;;77.53;19.27;;;11.00;99.90;;;;;;6237091;23;20096;-84
2022/10/14 06:38:23;;;;;;;43.92;16.75;;;11.00;99.90;;;;;;6236639;23;20433;-85
2022/10/14 06:40:50;;;;;;;78.50;18.67;;;11.00;99.90;;;;;;6238498;23;20016;-84
2022/10/14 06:43:17;;;;;;;53.13;18.23;;;11.00;99.90;;;;;;6241415;22;20071;-85
2022/10/14 06:45:42;;;;;;;68.40;20.67;;;11.00;99.90;;;;;;6241349;22;20020;-85
2022/10/14 06:48:08;;;;;;;57.65;19.95;;;11.00;99.90;;;;;;6241078;23;20024;-84
2022/10/14 06:50:33;;;;;;;66.55;21.45;;;11.00;99.90;;;;;;6238124;23;20019;-85
2022/10/14 06:52:59;;;;;;;57.30;18.08;;;11.00;99.90;;;;;;6239080;22;20319;-85
2022/10/14 06:55:25;;;;;;;50.72;19.73;;;11.00;99.90;;;;;;6241166;23;20012;-86
2022/10/14 06:57:50;;;;;;;43.78;17.70;;;11.00;99.90;;;;;;6239058;22;20095;-85
2022/10/14 07:00:16;;;;;;;49.28;18.85;;;11.10;99.90;;;;;;6239665;23;20445;-86
2022/10/14 07:02:43;;;;;;;49.20;19.67;;;11.10;99.90;;;;;;6242533;22;20062;-86
2022/10/14 07:05:09;;;;;;;44.05;19.58;;;11.10;99.90;;;;;;6241348;22;20016;-85
2022/10/14 07:07:34;;;;;;;59.30;20.60;;;11.10;99.90;;;;;;6238243;23;20093;-87
2022/10/14 07:10:00;;;;;;;46.55;19.67;;;11.10;99.90;;;;;;6242575;22;20360;-94
2022/10/14 07:12:26;;;;;;;51.72;22.08;;;11.10;99.90;;;;;;6242738;23;20015;-91
2022/10/14 07:14:52;;;;;;;49.10;20.90;;;11.20;99.90;;;;;;6241421;22;20031;-91
2022/10/14 07:17:17;;;;;;;45.63;21.25;;;11.20;99.90;;;;;;6241204;23;20012;-93
2022/10/14 07:19:43;;;;;;;53.53;21.95;;;11.30;99.90;;;;;;6240943;23;20105;-91
2022/10/14 07:22:09;;;;;;;53.08;21.40;;;11.30;99.90;;;;;;6240957;23;20031;-90
2022/10/14 07:24:35;;;;;;;52.55;21.55;;;11.40;99.90;;;;;;6241454;22;20008;-90
2022/10/14 07:27:00;;;;;;;45.20;21.40;;;11.40;99.90;;;;;;6241351;23;20074;-91
2022/10/14 07:29:26;;;;;;;46.10;20.13;;;11.50;99.90;;;;;;6241310;22;20011;-91
2022/10/14 07:31:52;;;;;;;48.05;22.45;;;11.50;99.90;;;;;;6240596;22;20047;-91
2022/10/14 07:34:18;;;;;;;43.80;21.42;;;11.50;99.90;;;;;;6241184;23;20020;-92
2022/10/14 07:36:43;;;;;;;46.30;22.15;;;11.50;99.90;;;;;;6239358;23;20054;-92
2022/10/14 07:39:09;;;;;;;43.60;19.85;;;11.60;99.90;;;;;;6241475;23;20016;-89
2022/10/14 07:41:35;;;;;;;44.30;21.42;;;11.60;99.90;;;;;;6241049;22;20016;-89
2022/10/14 07:44:07;;;;;;;43.60;21.50;;;11.60;99.90;;;;;;6213801;23;20044;-90
2022/10/14 07:46:35;;;;;;;45.78;20.55;;;11.70;99.90;;;;;;6241018;22;20019;-92
2022/10/14 07:49:06;;;;;;;38.67;20.40;;;11.70;99.90;;;;;;6240585;22;20008;-90
2022/10/14 07:51:32;;;;;;;38.05;20.13;;;11.70;99.90;;;;;;6238457;23;20016;-91
2022/10/14 07:54:00;;;;;;;37.05;19.17;;;11.90;99.90;;;;;;6240344;22;20035;-91
2022/10/14 07:56:26;;;;;;;42.65;21.02;;;11.70;99.90;;;;;;6239226;23;20079;-90
2022/10/14 07:58:52;;;;;;;45.13;21.05;;;11.70;99.90;;;;;;6240456;23;20197;-91
2022/10/14 08:01:18;;;;;;;38.60;20.40;;;11.70;99.90;;;;;;6239437;23;20015;-90
2022/10/14 08:03:44;;;;;;;38.65;19.30;;;11.70;99.90;;;;;;6241097;22;20034;-89
2022/10/14 08:06:11;;;;;;;39.85;19.30;;;11.80;99.90;;;;;;6238005;23;20621;-89
2022/10/14 08:08:37;;;;;;;35.92;19.27;;;11.80;99.90;;;;;;6240503;22;20020;-89
2022/10/14 08:11:07;;;;;;;40.65;20.33;;;11.80;99.90;;;;;;6238725;23;20406;-90
2022/10/14 08:13:33;;;;;;;39.75;20.02;;;11.80;99.90;;;;;;6213862;23;20464;-89
2022/10/14 08:15:59;;;;;;;40.40;19.85;;;11.80;99.90;;;;;;6238425;23;20020;-89
2022/10/14 08:18:25;;;;;;;38.63;19.52;;;11.80;99.90;;;;;;6240181;23;20066;-89
2022/10/14 08:20:51;;;;;;;39.78;20.20;;;11.90;99.90;;;;;;6240651;22;20031;-91
2022/10/14 08:23:16;;;;;;;39.65;19.90;;;12.00;99.90;;;;;;6238479;22;20429;-90
2022/10/14 08:25:43;;;;;;;35.33;19.88;;;12.00;99.90;;;;;;6237685;23;20112;-89
2022/10/14 08:28:08;;;;;;;40.95;21.27;;;12.00;99.90;;;;;;6239768;22;20024;-90
2022/10/14 08:30:34;;;;;;;39.10;20.27;;;12.10;99.90;;;;;;6212477;23;20022;-90
2022/10/14 08:33:00;;;;;;;37.10;19.58;;;12.10;99.90;;;;;;6240363;23;20027;-89
2022/10/14 08:35:26;;;;;;;33.45;17.25;;;12.20;99.90;;;;;;6239146;23;20012;-89
2022/10/14 08:37:59;;;;;;;33.30;18.05;;;12.20;99.90;;;;;;6238660;22;20479;-91
2022/10/14 08:40:27;;;;;;;34.30;18.48;;;12.30;99.90;;;;;;6212945;23;20076;-93
2022/10/14 08:43:13;;;;;;;33.83;19.10;;;12.30;99.90;;;;;;6240455;22;20069;-94
2022/10/14 08:45:44;;;;;;;31.88;19.75;;;12.00;99.90;;;;;;6240463;22;20039;-91
2022/10/14 08:48:15;;;;;;;33.58;18.90;;;12.30;99.90;;;;;;6238961;23;20008;-95
2022/10/14 08:50:45;;;;;;;32.65;17.98;;;12.40;99.90;;;;;;6239692;23;20019;-95
2022/10/14 08:53:17;;;;;;;33.58;18.85;;;12.40;99.90;;;;;;6239856;23;20016;-94
2022/10/14 08:55:51;;;;;;;29.92;17.83;;;12.40;99.90;;;;;;6238568;23;20014;-95
2022/10/14 08:58:27;;;;;;;30.90;18.00;;;12.40;99.90;;;;;;6211844;23;20630;-90
2022/10/14 09:00:54;;;;;;;31.85;17.48;;;12.40;99.90;;;;;;6239486;22;20012;-90
2022/10/14 09:03:35;;;;;;;33.30;18.35;;;12.50;99.90;;;;;;6235621;23;20012;-90
2022/10/14 09:06:25;;;;;;;32.67;18.48;;;12.50;99.90;;;;;;6211997;23;20008;-92
2022/10/14 09:08:54;;;;;;;37.78;19.05;;;12.60;99.90;;;;;;6237818;23;20016;-90
2022/10/14 09:11:21;;;;;;;30.38;16.80;;;12.70;99.90;;;;;;6239946;22;20008;-92
2022/10/14 09:13:54;;;;;;;35.38;19.50;;;12.70;99.90;;;;;;6238081;23;20012;-92
2022/10/14 09:16:21;;;;;;;34.47;18.80;;;12.70;99.90;;;;;;6238351;23;20040;-94
2022/10/14 09:18:59;;;;;;;35.35;18.95;;;12.80;99.90;;;;;;6240176;23;20449;-95
2022/10/14 09:21:32;;;;;;;37.67;20.75;;;12.80;99.90;;;;;;6242572;22;20510;-95
2022/10/14 09:24:15;;;;;;;36.97;20.77;;;12.90;99.90;;;;;;6240980;23;20046;-94
2022/10/14 09:26:44;;;;;;;35.53;20.55;;;13.00;99.90;;;;;;6240366;23;20096;-94
2022/10/14 09:29:21;;;;;;;41.63;21.85;;;13.10;99.90;;;;;;6241226;22;20019;-94
2022/10/14 09:31:47;;;;;;;40.17;21.02;;;13.10;99.90;;;;;;6237228;23;20579;-94
2022/10/14 09:34:24;;;;;;;31.60;18.42;;;13.10;99.90;;;;;;6238890;23;20461;-93
2022/10/14 09:36:52;;;;;;;36.63;20.98;;;13.10;99.90;;;;;;6240530;22;20008;-93
2022/10/14 09:39:17;;;;;;;35.15;19.85;;;13.10;99.90;;;;;;6238424;23;20012;-94
2022/10/14 09:41:48;;;;;;;34.42;20.08;;;13.10;99.90;;;;;;6240632;23;20009;-94
2022/10/14 09:44:24;;;;;;;35.35;20.15;;;13.10;99.90;;;;;;6240774;22;20095;-93
2022/10/14 09:47:03;;;;;;;32.97;19.40;;;13.10;99.90;;;;;;6239362;22;20475;-93
2022/10/14 09:49:41;;;;;;;32.10;19.13;;;13.10;99.90;;;;;;6240181;22;20025;-94
2022/10/14 09:52:18;;;;;;;35.08;20.70;;;13.10;99.90;;;;;;6238707;23;20026;-93
2022/10/14 09:54:50;;;;;;;37.50;20.30;;;13.10;99.90;;;;;;6238699;23;20501;-94
2022/10/14 09:57:18;;;;;;;37.95;21.83;;;13.10;99.90;;;;;;6240144;22;20012;-93
2022/10/14 09:59:59;;;;;;;39.20;21.05;;;13.10;99.90;;;;;;6239590;22;20094;-92
2022/10/14 10:02:31;;;;;;;35.75;20.08;;;13.20;99.90;;;;;;6240361;22;20020;-92
2022/10/14 10:05:11;;;;;;;34.50;20.10;;;13.20;99.90;;;;;;6240548;23;20073;-93
2022/10/14 10:07:37;;;;;;;37.53;20.80;;;13.20;99.90;;;;;;6239665;22;20008;-92
2022/10/14 10:10:17;;;;;;;36.83;19.45;;;13.20;99.90;;;;;;6240632;23;20326;-91
2022/10/14 10:12:45;;;;;;;36.22;21.25;;;13.20;99.90;;;;;;6240091;23;20015;-92
2022/10/14 10:15:20;;;;;;;34.20;19.30;;;13.30;99.90;;;;;;6239436;22;20075;-89
2022/10/14 10:17:47;;;;;;;33.05;18.38;;;13.20;99.90;;;;;;6238307;23;20016;-91
2022/10/14 10:20:32;;;;;;;33.55;19.83;;;13.30;99.90;;;;;;6237937;23;20016;-90
2022/10/14 10:23:24;;;;;;;35.13;19.50;;;13.30;99.90;;;;;;6238699;22;20087;-90
2022/10/14 10:25:50;;;;;;;30.48;16.88;;;13.30;99.90;;;;;;6238682;23;20023;-90
2022/10/14 10:28:22;;;;;;;33.53;17.10;;;13.30;99.90;;;;;;6240951;22;20012;-89
2022/10/14 10:31:21;;;;;;;33.28;17.70;;;13.30;99.90;;;;;;6243194;22;20015;-90
2022/10/14 10:34:21;;;;;;;30.52;17.42;;;13.40;99.90;;;;;;6239410;23;20046;-89
2022/10/14 10:37:02;;;;;;;28.50;16.35;;;13.40;99.90;;;;;;6241277;23;20012;-89
2022/10/14 10:39:44;;;;;;;27.25;14.43;;;13.60;99.90;;;;;;6241765;22;20023;-90
2022/10/14 10:42:24;;;;;;;27.98;15.50;;;13.40;99.90;;;;;;6239446;23;20023;-89
2022/10/14 10:44:57;;;;;;;26.05;14.30;;;13.50;99.90;;;;;;6240909;22;20099;-89
2022/10/14 10:47:51;;;;;;;24.77;14.07;;;13.40;99.90;;;;;;6214748;23;20044;-89
2022/10/14 10:50:44;;;;;;;27.63;14.60;;;13.40;99.90;;;;;;6239497;23;20054;-90
2022/10/14 10:53:34;;;;;;;26.13;13.93;;;13.40;99.90;;;;;;6239319;23;20020;-90
2022/10/14 10:56:18;;;;;;;25.30;14.20;;;13.40;99.90;;;;;;6241014;23;20442;-90
2022/10/14 10:59:05;;;;;;;25.35;14.10;;;13.50;99.90;;;;;;6238169;22;20016;-89
2022/10/14 11:01:53;;;;;;;25.67;13.63;;;13.40;99.90;;;;;;6240407;22;20524;-90
2022/10/14 11:04:31;;;;;;;29.83;14.50;;;13.50;99.90;;;;;;6238289;23;20349;-90
2022/10/14 11:12:58;;;;;;;26.13;13.98;;;13.60;99.90;;;;;;6241018;23;20047;-90
2022/10/14 11:15:31;;;;;;;24.98;13.95;;;13.60;99.90;;;;;;6240274;22;20016;-90
2022/10/14 11:18:08;;;;;;;26.58;14.35;;;13.60;99.90;;;;;;6238471;23;20016;-91
2022/10/14 11:21:08;;;;;;;29.02;15.23;;;13.60;99.90;;;;;;6240045;23;20016;-92
2022/10/14 11:23:44;;;;;;;32.03;15.55;;;13.60;99.90;;;;;;6241640;23;20012;-91
2022/10/14 11:26:28;;;;;;;35.05;15.30;;;13.60;99.90;;;;;;6239511;23;20322;-92
2022/10/14 11:29:00;;;;;;;29.17;15.60;;;13.60;99.90;;;;;;6240706;23;20059;-92
2022/10/14 11:31:34;;;;;;;27.60;14.85;;;13.50;99.90;;;;;;6241359;22;20091;-91
2022/10/14 11:34:21;;;;;;;26.60;14.77;;;13.60;99.90;;;;;;6239778;23;20016;-92
2022/10/14 11:37:19;;;;;;;30.02;14.95;;;13.50;99.90;;;;;;6241416;23;20012;-92
2022/10/14 11:39:57;;;;;;;27.70;14.45;;;13.50;99.90;;;;;;6230649;23;20008;-91
2022/10/14 11:42:23;;;;;;;26.15;14.63;;;13.60;99.90;;;;;;6239063;23;20026;-90
2022/10/14 11:45:08;;;;;;;27.13;14.80;;;13.70;99.90;;;;;;6241333;22;20087;-92
2022/10/14 11:47:38;;;;;;;27.52;14.68;;;13.60;99.90;;;;;;6239553;23;20112;-91
2022/10/14 11:50:22;;;;;;;27.38;14.77;;;13.70;99.90;;;;;;6240923;22;20380;-87
2022/10/14 11:53:00;;;;;;;25.35;12.25;;;13.70;99.90;;;;;;6240604;22;20214;-88
2022/10/14 11:55:34;;;;;;;23.92;13.57;;;13.80;99.90;;;;;;6240612;22;20012;-88
2022/10/14 11:58:09;;;;;;;22.10;13.38;;;13.90;99.90;;;;;;6239677;22;20150;-87
2022/10/14 12:00:35;;;;;;;;;;;13.80;99.90;;;;;;6241831;22;20031;-88
2022/10/14 12:03:22;;;;;;;20.63;11.77;;;13.80;99.90;;;;;;6239179;23;20240;-87
2022/10/14 12:06:17;;;;;;;22.63;11.63;;;13.80;99.90;;;;;;6241127;22;20389;-86
2022/10/14 12:08:52;;;;;;;23.95;13.27;;;13.80;99.90;;;;;;6240626;22;20094;-88
2022/10/14 12:11:39;;;;;;;24.25;12.55;;;13.80;99.90;;;;;;6240032;22;20008;-90
2022/10/14 12:14:15;;;;;;;21.75;12.40;;;13.80;99.90;;;;;;6238747;22;20021;-88
2022/10/14 12:16:43;;;;;;;21.23;13.13;;;13.80;99.90;;;;;;6240397;22;20456;-88
2022/10/14 12:19:12;;;;;;;23.20;13.13;;;13.80;99.90;;;;;;6213739;23;20016;-88
2022/10/14 12:22:08;;;;;;;23.95;13.82;;;13.80;99.90;;;;;;6240482;22;20018;-88
2022/10/14 12:24:40;;;;;;;22.85;13.05;;;13.90;99.90;;;;;;6240815;23;20012;-88
2022/10/14 12:27:09;;;;;;;22.48;12.07;;;14.00;99.90;;;;;;6237978;23;20500;-88
2022/10/14 12:29:37;;;;;;;21.75;13.18;;;13.90;99.90;;;;;;6240667;22;20020;-88
2022/10/14 12:32:02;;;;;;;22.70;13.75;;;13.80;99.90;;;;;;6238548;23;20012;-88
2022/10/14 12:34:55;;;;;;;23.38;14.45;;;13.80;99.90;;;;;;6237920;23;20020;-87
2022/10/14 12:37:23;;;;;;;25.55;14.10;;;13.80;99.90;;;;;;6197501;23;20023;-87
2022/10/14 12:39:53;;;;;;;25.45;14.48;;;13.70;99.90;;;;;;6240248;23;20016;-87
2022/10/14 12:42:19;;;;;;;26.58;15.07;;;13.70;99.90;;;;;;6240134;22;20012;-86
2022/10/14 12:44:55;;;;;;;29.15;16.98;;;13.70;99.90;;;;;;6238422;23;20481;-87
2022/10/14 12:47:31;;;;;;;31.58;18.17;;;13.70;99.90;;;;;;6240374;22;20008;-87